createdAt,value
2022-07-29T00:01:42.421Z,101210.25
2022-07-29T00:04:09.690Z,101207.50
2022-07-29T00:06:36.857Z,101209.69
2022-07-29T00:09:22.607Z,101206.03
2022-07-29T00:11:50.024Z,101216.31
2022-07-29T00:14:17.601Z,101215.53
2022-07-29T00:16:45.020Z,101212.06
2022-07-29T00:19:12.281Z,101217.78
2022-07-29T00:21:39.743Z,101209.47
2022-07-29T00:24:25.649Z,101221.19
2022-07-29T00:26:53.206Z,101217.34
2022-07-29T00:29:36.355Z,101213.84
2022-07-29T00:32:04.225Z,101214.19
2022-07-29T00:34:50.356Z,101226.66
2022-07-29T00:37:17.779Z,101203.28
2022-07-29T00:39:45.077Z,101203.47
2022-07-29T00:42:12.222Z,101199.34
2022-07-29T00:44:41.737Z,101189.94
2022-07-29T00:47:12.840Z,101195.06
2022-07-29T00:49:41.727Z,101195.06
2022-07-29T00:52:11.024Z,101197.75
2022-07-29T00:54:44.155Z,101202.84
2022-07-29T00:57:13.197Z,101203.97
2022-07-29T00:59:40.452Z,101196.59
2022-07-29T01:02:07.887Z,101202.84
2022-07-29T01:04:35.313Z,101203.59
2022-07-29T01:07:04.416Z,101197.56
2022-07-29T01:09:42.897Z,101192.13
2022-07-29T01:12:21.501Z,101188.84
2022-07-29T01:14:49.872Z,101182.63
2022-07-29T01:17:28.708Z,101187.66
2022-07-29T01:20:16.613Z,101181.19
2022-07-29T01:23:03.400Z,101193.84
2022-07-29T01:25:56.116Z,101191.94
2022-07-29T01:29:07.414Z,101200.13
2022-07-29T01:31:58.949Z,101202.84
2022-07-29T01:34:45.632Z,101205.78
2022-07-29T01:37:34.325Z,101194.25
2022-07-29T01:40:04.688Z,101197.22
2022-07-29T01:42:46.261Z,101194.69
2022-07-29T01:45:38.193Z,101193.91
2022-07-29T01:48:16.384Z,101207.16
2022-07-29T01:51:25.452Z,101198.94
2022-07-29T01:54:08.822Z,101191.72
2022-07-29T01:56:38.970Z,101194.63
2022-07-29T01:59:08.856Z,101201.47
2022-07-29T02:01:40.406Z,101186.88
2022-07-29T02:04:11.046Z,101190.00
2022-07-29T02:06:40.004Z,101187.06
2022-07-29T02:09:10.766Z,101188.41
2022-07-29T02:11:39.274Z,101186.06
2022-07-29T02:14:08.192Z,101177.47
2022-07-29T02:16:38.327Z,101177.47
2022-07-29T02:19:07.883Z,101181.56
2022-07-29T02:21:36.469Z,101182.94
2022-07-29T02:24:05.820Z,101180.56
2022-07-29T02:26:34.709Z,101185.28
2022-07-29T02:29:03.351Z,101178.25
2022-07-29T02:31:35.698Z,101175.13
2022-07-29T02:34:08.201Z,101178.25
2022-07-29T02:36:36.300Z,101176.69
2022-07-29T02:39:04.781Z,101172.38
2022-07-29T02:41:41.312Z,101181.56
2022-07-29T02:44:14.067Z,101174.38
2022-07-29T02:46:51.926Z,101181.75
2022-07-29T02:49:22.283Z,101183.91
2022-07-29T02:51:58.616Z,101185.84
2022-07-29T02:54:37.594Z,101193.09
2022-07-29T02:57:12.054Z,101198.19
2022-07-29T02:59:44.607Z,101204.84
2022-07-29T03:02:15.563Z,101206.03
2022-07-29T03:04:44.774Z,101212.84
2022-07-29T03:07:16.174Z,101212.28
2022-07-29T03:09:45.450Z,101218.50
2022-07-29T03:12:13.481Z,101212.84
2022-07-29T03:14:40.869Z,101208.53
2022-07-29T03:17:08.435Z,101211.44
2022-07-29T03:19:35.818Z,101215.94
2022-07-29T03:22:03.347Z,101213.81
2022-07-29T03:24:37.892Z,101204.06
2022-07-29T03:27:06.464Z,101198.97
2022-07-29T03:29:34.597Z,101196.44
2022-07-29T03:32:08.426Z,101196.25
2022-07-29T03:34:37.833Z,101196.25
2022-07-29T03:37:07.083Z,101188.22
2022-07-29T03:39:40.457Z,101192.72
2022-07-29T03:42:09.607Z,101194.25
2022-07-29T03:44:38.516Z,101189.78
2022-07-29T03:47:10.337Z,101192.91
2022-07-29T03:49:38.947Z,101196.63
2022-07-29T03:52:07.208Z,101196.03
2022-07-29T03:54:34.582Z,101192.31
2022-07-29T03:57:03.220Z,101195.66
2022-07-29T03:59:32.039Z,101186.13
2022-07-29T04:02:00.138Z,101195.47
2022-07-29T04:04:27.669Z,101191.34
2022-07-29T04:06:56.020Z,101197.19
2022-07-29T04:09:23.198Z,101194.63
2022-07-29T04:12:03.420Z,101193.09
2022-07-29T04:14:35.549Z,101176.41
2022-07-29T04:17:04.233Z,101190.81
2022-07-29T04:19:32.480Z,101193.50
2022-07-29T04:22:00.828Z,101197.44
2022-07-29T04:24:28.448Z,101192.56
2022-07-29T04:26:55.797Z,101194.31
2022-07-29T04:29:23.246Z,101195.88
2022-07-29T04:31:50.526Z,101203.47
2022-07-29T04:34:18.115Z,101206.81
2022-07-29T04:36:45.784Z,101208.56
2022-07-29T04:39:12.984Z,101215.94
2022-07-29T04:41:40.081Z,101211.28
2022-07-29T04:44:07.561Z,101218.50
2022-07-29T04:46:36.988Z,101220.03
2022-07-29T04:49:04.825Z,101218.69
2022-07-29T04:51:32.303Z,101219.25
2022-07-29T04:53:59.602Z,101223.56
2022-07-29T04:56:27.075Z,101241.09
2022-07-29T04:58:54.690Z,101249.69
2022-07-29T05:01:21.994Z,101242.13
2022-07-29T05:03:49.242Z,101240.34
2022-07-29T05:06:16.380Z,101241.91
2022-07-29T05:08:43.569Z,101245.22
2022-07-29T05:11:11.524Z,101243.47
2022-07-29T05:13:45.657Z,101242.28
2022-07-29T05:16:15.177Z,101242.47
2022-07-29T05:18:43.337Z,101241.31
2022-07-29T05:21:10.526Z,101248.13
2022-07-29T05:23:37.782Z,101246.94
2022-07-29T05:26:05.132Z,101246.53
2022-07-29T05:28:38.998Z,101245.00
2022-07-29T05:31:06.244Z,101252.56
2022-07-29T05:33:35.399Z,101250.22
2022-07-29T05:36:08.449Z,101250.03
2022-07-29T05:38:37.026Z,101255.88
2022-07-29T05:41:05.734Z,101253.53
2022-07-29T05:43:33.077Z,101256.63
2022-07-29T05:46:00.344Z,101255.31
2022-07-29T05:48:27.751Z,101257.09
2022-07-29T05:50:55.834Z,101255.50
2022-07-29T05:53:23.823Z,101255.69
2022-07-29T05:55:52.054Z,101263.31
2022-07-29T05:58:19.329Z,101260.94
2022-07-29T06:00:46.735Z,101250.03
2022-07-29T06:03:13.878Z,101238.56
2022-07-29T06:05:41.448Z,101238.75
2022-07-29T06:08:08.958Z,101242.63
2022-07-29T06:10:36.784Z,101257.84
2022-07-29T06:13:04.264Z,101232.47
2022-07-29T06:15:31.727Z,101249.84
2022-07-29T06:18:01.378Z,101253.56
2022-07-29T06:20:33.363Z,101260.53
2022-07-29T06:23:00.930Z,101240.44
2022-07-29T06:25:33.363Z,101244.19
2022-07-29T06:28:00.454Z,101249.47
2022-07-29T06:30:28.021Z,101246.75
2022-07-29T06:32:55.667Z,101245.00
2022-07-29T06:35:38.935Z,101252.00
2022-07-29T06:38:14.900Z,101244.94
2022-07-29T06:41:01.669Z,101247.94
2022-07-29T06:43:32.702Z,101245.78
2022-07-29T06:46:02.334Z,101251.22
2022-07-29T06:48:30.164Z,101249.84
2022-07-29T06:50:57.468Z,101253.91
2022-07-29T06:53:24.970Z,101247.28
2022-07-29T06:55:52.894Z,101253.91
2022-07-29T06:58:21.524Z,101257.44
2022-07-29T07:00:59.480Z,101260.53
2022-07-29T07:03:26.905Z,101260.53
2022-07-29T07:05:55.209Z,101248.88
2022-07-29T07:08:23.311Z,101246.50
2022-07-29T07:10:51.585Z,101249.97
2022-07-29T07:13:19.561Z,101258.19
2022-07-29T07:15:49.393Z,101253.28
2022-07-29T07:18:17.706Z,101258.09
2022-07-29T07:20:45.647Z,101260.09
2022-07-29T07:23:12.980Z,101262.50
2022-07-29T07:25:40.119Z,101259.31
2022-07-29T07:28:07.289Z,101259.09
2022-07-29T07:30:34.711Z,101257.63
2022-07-29T07:33:02.118Z,101259.97
2022-07-29T07:35:29.465Z,101253.66
2022-07-29T07:37:57.462Z,101245.34
2022-07-29T07:40:25.122Z,101253.09
2022-07-29T07:42:52.258Z,101241.69
2022-07-29T07:45:19.688Z,101256.31
2022-07-29T07:47:47.821Z,101250.25
2022-07-29T07:50:19.081Z,101251.41
2022-07-29T07:52:51.301Z,101258.38
2022-07-29T07:55:19.409Z,101248.03
2022-07-29T07:57:46.955Z,101247.94
2022-07-29T08:00:15.688Z,101253.09
2022-07-29T08:02:44.133Z,101259.50
2022-07-29T08:05:13.798Z,101253.03
2022-07-29T08:07:41.053Z,101253.25
2022-07-29T08:10:09.050Z,101243.97
2022-07-29T08:12:36.250Z,101248.50
2022-07-29T08:15:03.593Z,101249.28
2022-07-29T08:17:30.920Z,101242.91
2022-07-29T08:20:02.653Z,101241.84
2022-07-29T08:22:30.432Z,101242.19
2022-07-29T08:24:57.597Z,101249.59
2022-07-29T08:27:43.456Z,101246.16
2022-07-29T08:30:12.930Z,101251.22
2022-07-29T08:32:56.479Z,101243.84
2022-07-29T08:35:24.340Z,101243.47
2022-07-29T08:37:52.335Z,101245.78
2022-07-29T08:40:30.604Z,101240.13
2022-07-29T08:43:06.624Z,101237.94
2022-07-29T08:45:48.484Z,101241.09
2022-07-29T08:48:21.299Z,101230.72
2022-07-29T08:50:51.682Z,101230.72
2022-07-29T08:53:19.825Z,101215.31
2022-07-29T08:55:48.705Z,101217.59
2022-07-29T08:58:16.681Z,101214.09
2022-07-29T09:00:47.590Z,101221.63
2022-07-29T09:03:21.034Z,101220.28
2022-07-29T09:05:49.468Z,101217.09
2022-07-29T09:08:18.101Z,101223.53
2022-07-29T09:10:45.755Z,101217.06
2022-07-29T09:13:13.214Z,101216.47
2022-07-29T09:15:40.577Z,101211.97
2022-07-29T09:18:08.049Z,101219.34
2022-07-29T09:21:12.487Z,101218.16
2022-07-29T09:23:40.884Z,101215.88
2022-07-29T09:26:08.116Z,101209.81
2022-07-29T09:28:35.368Z,101211.97
2022-07-29T09:31:03.534Z,101205.84
2022-07-29T09:33:36.698Z,101202.63
2022-07-29T09:36:07.196Z,101206.41
2022-07-29T09:38:36.361Z,101200.28
2022-07-29T09:41:06.562Z,101199.06
2022-07-29T09:43:34.834Z,101188.75
2022-07-29T09:46:13.305Z,101192.91
2022-07-29T09:48:41.074Z,101185.59
2022-07-29T09:51:25.594Z,101181.69
2022-07-29T09:53:57.249Z,101183.25
2022-07-29T09:56:42.143Z,101166.16
2022-07-29T09:59:12.356Z,101174.97
2022-07-29T10:01:39.560Z,101168.66
2022-07-29T10:04:06.896Z,101171.19
2022-07-29T10:06:34.556Z,101168.84
2022-07-29T10:09:10.371Z,101159.66
2022-07-29T10:11:49.087Z,101155.22
2022-07-29T10:14:17.372Z,101157.06
2022-07-29T10:16:44.736Z,101151.22
2022-07-29T10:19:12.098Z,101149.66
2022-07-29T10:21:40.855Z,101150.59
2022-07-29T10:24:14.855Z,101151.34
2022-07-29T10:26:43.392Z,101133.31
2022-07-29T10:29:10.682Z,101142.13
2022-07-29T10:31:59.173Z,101149.59
2022-07-29T10:34:49.761Z,101146.16
2022-07-29T10:37:35.365Z,101144.25
2022-07-29T10:40:44.673Z,101140.56
2022-07-29T10:43:28.316Z,101140.03
2022-07-29T10:45:59.408Z,101128.22
2022-07-29T10:48:27.434Z,101130.59
2022-07-29T10:51:01.099Z,101127.84
2022-07-29T10:53:52.294Z,101122.13
2022-07-29T10:56:29.221Z,101123.72
2022-07-29T10:59:21.788Z,101111.31
2022-07-29T11:01:53.506Z,101115.81
2022-07-29T11:04:47.153Z,101123.31
2022-07-29T11:07:17.491Z,101114.56
2022-07-29T11:09:46.654Z,101118.28
2022-07-29T11:12:52.195Z,101107.75
2022-07-29T11:15:22.672Z,101107.00
2022-07-29T11:17:55.275Z,101094.44
2022-07-29T11:20:45.867Z,101099.06
2022-07-29T11:23:33.864Z,101082.34
2022-07-29T11:26:14.446Z,101082.34
2022-07-29T11:28:55.744Z,101079.91
2022-07-29T11:31:56.063Z,101080.19
2022-07-29T11:34:30.459Z,101089.34
2022-07-29T11:37:13.717Z,101068.91
2022-07-29T11:39:53.951Z,101073.06
2022-07-29T11:42:32.131Z,101067.66
2022-07-29T11:45:44.962Z,101066.56
2022-07-29T11:48:29.785Z,101057.06
2022-07-29T11:50:49.724Z,101060.97
2022-07-29T11:53:17.319Z,101066.34
2022-07-29T11:58:32.714Z,101055.75
2022-07-29T12:01:04.572Z,101050.47
2022-07-29T12:03:36.137Z,101052.34
2022-07-29T12:06:13.623Z,101053.84
2022-07-29T12:08:43.798Z,101053.00
2022-07-29T12:11:22.723Z,101048.19
2022-07-29T12:13:54.345Z,101038.06
2022-07-29T12:16:25.785Z,101030.41
2022-07-29T12:19:01.994Z,101030.44
2022-07-29T12:21:56.990Z,101035.03
2022-07-29T12:24:27.417Z,101023.81
2022-07-29T12:26:58.387Z,101033.09
2022-07-29T12:29:33.808Z,101015.84
2022-07-29T12:32:05.441Z,101013.41
2022-07-29T12:34:33.587Z,101015.94
2022-07-29T12:37:02.158Z,101007.81
2022-07-29T12:39:30.656Z,101011.09
2022-07-29T12:42:03.854Z,101006.47
2022-07-29T12:44:48.385Z,101001.91
2022-07-29T12:47:16.227Z,100995.50
2022-07-29T12:49:43.437Z,100995.69
2022-07-29T12:52:30.120Z,100994.13
2022-07-29T12:54:57.621Z,100999.22
2022-07-29T12:57:25.082Z,100988.25
2022-07-29T13:00:11.702Z,100987.44
2022-07-29T13:02:39.938Z,100982.06
2022-07-29T13:05:09.349Z,100975.13
2022-07-29T13:07:54.454Z,100975.88
2022-07-29T13:10:24.906Z,100981.19
2022-07-29T13:13:12.299Z,100974.75
2022-07-29T13:15:41.187Z,100975.56
2022-07-29T13:18:31.688Z,100970.69
2022-07-29T13:21:12.140Z,100968.84
2022-07-29T13:23:39.631Z,100975.75
2022-07-29T13:26:12.533Z,100969.81
2022-07-29T13:28:39.836Z,100966.06
2022-07-29T13:31:07.097Z,100953.28
2022-07-29T13:33:34.286Z,100951.13
2022-07-29T13:36:01.617Z,100958.25
2022-07-29T13:38:31.199Z,100951.84
2022-07-29T13:40:59.407Z,100951.44
2022-07-29T13:43:26.617Z,100942.03
2022-07-29T13:45:53.812Z,100947.94
2022-07-29T13:48:21.647Z,100927.06
2022-07-29T13:50:49.282Z,100937.84
2022-07-29T13:53:17.998Z,100940.19
2022-07-29T13:55:45.526Z,100933.13
2022-07-29T13:58:12.757Z,100931.22
2022-07-29T14:00:39.879Z,100931.91
2022-07-29T14:03:08.059Z,100917.47
2022-07-29T14:05:35.337Z,100916.63
2022-07-29T14:08:02.474Z,100924.88
2022-07-29T14:10:29.571Z,100919.66
2022-07-29T14:12:56.672Z,100920.13
2022-07-29T14:15:24.520Z,100918.84
2022-07-29T14:17:51.635Z,100917.19
2022-07-29T14:20:19.026Z,100912.47
2022-07-29T14:22:46.172Z,100916.56
2022-07-29T14:25:15.220Z,100919.06
2022-07-29T14:27:44.361Z,100919.13
2022-07-29T14:30:11.849Z,100907.56
2022-07-29T14:32:38.980Z,100908.09
2022-07-29T14:35:07.223Z,100910.53
2022-07-29T14:37:40.584Z,100899.75
2022-07-29T14:40:10.000Z,100901.03
2022-07-29T14:42:38.157Z,100905.78
2022-07-29T14:45:06.988Z,100901.78
2022-07-29T14:47:35.316Z,100896.25
2022-07-29T14:50:03.718Z,100894.88
2022-07-29T14:52:30.877Z,100891.41
2022-07-29T14:54:58.092Z,100887.16
2022-07-29T14:57:25.441Z,100890.25
2022-07-29T14:59:53.345Z,100896.91
2022-07-29T15:02:20.472Z,100891.13
2022-07-29T15:04:48.939Z,100889.81
2022-07-29T15:07:16.910Z,100893.56
2022-07-29T15:09:49.818Z,100891.38
2022-07-29T15:12:17.513Z,100892.44
2022-07-29T15:14:44.668Z,100878.41
2022-07-29T15:17:12.050Z,100882.78
2022-07-29T15:19:39.605Z,100880.09
2022-07-29T15:22:12.258Z,100876.50
2022-07-29T15:24:39.429Z,100873.28
2022-07-29T15:27:06.726Z,100874.28
2022-07-29T15:29:34.255Z,100865.47
2022-07-29T15:32:02.102Z,100865.06
2022-07-29T15:34:29.693Z,100870.72
2022-07-29T15:36:57.610Z,100864.16
2022-07-29T15:39:24.757Z,100874.84
2022-07-29T15:41:52.075Z,100869.78
2022-07-29T15:44:20.904Z,100870.13
2022-07-29T15:47:04.239Z,100866.19
2022-07-29T15:49:46.433Z,100863.22
2022-07-29T15:52:24.721Z,100866.53
2022-07-29T15:54:55.392Z,100864.22
2022-07-29T15:57:23.072Z,100854.31
2022-07-29T15:59:50.623Z,100859.09
2022-07-29T16:02:17.936Z,100862.31
2022-07-29T16:04:45.123Z,100838.31
2022-07-29T16:07:12.482Z,100851.16
2022-07-29T16:09:42.226Z,100850.63
2022-07-29T16:12:14.630Z,100856.97
2022-07-29T16:14:45.174Z,100856.69
2022-07-29T16:17:14.977Z,100852.31
2022-07-29T16:19:45.704Z,100854.31
2022-07-29T16:22:12.915Z,100849.72
2022-07-29T16:24:40.305Z,100847.81
2022-07-29T16:27:07.998Z,100847.56
2022-07-29T16:29:37.119Z,100841.25
2022-07-29T16:32:05.849Z,100847.66
2022-07-29T16:34:33.140Z,100845.88
2022-07-29T16:37:00.906Z,100851.03
2022-07-29T16:39:28.187Z,100845.59
2022-07-29T16:41:59.877Z,100840.75
2022-07-29T16:44:28.677Z,100843.81
2022-07-29T16:46:58.917Z,100854.97
2022-07-29T16:49:27.397Z,100846.94
2022-07-29T16:51:54.945Z,100846.19
2022-07-29T16:54:22.077Z,100856.63
2022-07-29T16:56:49.311Z,100843.56
2022-07-29T16:59:16.444Z,100844.19
2022-07-29T17:01:43.844Z,100858.84
2022-07-29T17:04:12.080Z,100856.00
2022-07-29T17:06:41.140Z,100848.03
2022-07-29T17:09:10.086Z,100850.97
2022-07-29T17:11:54.049Z,100850.22
2022-07-29T17:14:27.815Z,100849.47
2022-07-29T17:17:00.627Z,100856.63
2022-07-29T17:19:29.413Z,100850.84
2022-07-29T17:22:04.664Z,100857.41
2022-07-29T17:24:34.280Z,100855.75
2022-07-29T17:27:01.843Z,100852.66
2022-07-29T17:29:28.979Z,100852.81
2022-07-29T17:31:57.792Z,100858.56
2022-07-29T17:34:25.136Z,100855.63
2022-07-29T17:36:52.417Z,100854.47
2022-07-29T17:39:19.545Z,100857.28
2022-07-29T17:41:46.959Z,100856.75
2022-07-29T17:44:14.660Z,100851.38
2022-07-29T17:46:41.868Z,100861.97
2022-07-29T17:49:09.166Z,100854.25
2022-07-29T17:51:36.475Z,100852.72
2022-07-29T17:54:03.782Z,100849.50
2022-07-29T17:56:30.917Z,100856.94
2022-07-29T17:59:01.259Z,100859.50
2022-07-29T18:01:28.853Z,100856.00
2022-07-29T18:03:59.798Z,100858.69
2022-07-29T18:06:27.387Z,100849.28
2022-07-29T18:08:55.775Z,100860.66
2022-07-29T18:11:23.514Z,100851.69
2022-07-29T18:13:50.646Z,100860.09
2022-07-29T18:16:18.630Z,100859.69
2022-07-29T18:18:46.460Z,100873.88
2022-07-29T18:21:13.890Z,100874.69
2022-07-29T18:23:41.820Z,100870.25
2022-07-29T18:26:09.978Z,100871.13
2022-07-29T18:28:37.251Z,100868.59
2022-07-29T18:31:07.156Z,100870.63
2022-07-29T18:33:34.254Z,100878.84
2022-07-29T18:36:10.687Z,100882.41
2022-07-29T18:38:41.012Z,100881.38
2022-07-29T18:41:08.475Z,100888.00
2022-07-29T18:43:35.898Z,100884.78
2022-07-29T18:46:05.435Z,100883.75
2022-07-29T18:48:34.147Z,100897.59
2022-07-29T18:51:01.555Z,100888.66
2022-07-29T18:53:28.736Z,100885.22
2022-07-29T18:56:00.309Z,100891.25
2022-07-29T18:58:27.741Z,100894.06
2022-07-29T19:00:54.939Z,100895.47
2022-07-29T19:03:22.047Z,100898.56
2022-07-29T19:05:49.597Z,100900.09
2022-07-29T19:08:16.903Z,100908.28
2022-07-29T19:10:44.250Z,100907.53
2022-07-29T19:13:13.386Z,100910.34
2022-07-29T19:15:40.787Z,100904.03
2022-07-29T19:18:07.924Z,100906.97
2022-07-29T19:20:35.075Z,100907.41
2022-07-29T19:23:02.373Z,100907.28
2022-07-29T19:25:29.417Z,100907.59
2022-07-29T19:27:57.224Z,100904.66
2022-07-29T19:30:24.383Z,100904.94
2022-07-29T19:32:51.556Z,100906.34
2022-07-29T19:35:28.479Z,100912.72
2022-07-29T19:37:56.872Z,100908.03
2022-07-29T19:40:24.026Z,100903.84
2022-07-29T19:42:52.929Z,100905.88
2022-07-29T19:45:21.688Z,100895.28
2022-07-29T19:47:49.605Z,100899.78
2022-07-29T19:50:17.664Z,100903.81
2022-07-29T19:52:47.222Z,100906.94
2022-07-29T19:55:15.150Z,100895.19
2022-07-29T19:57:42.665Z,100910.91
2022-07-29T20:00:11.831Z,100905.50
2022-07-29T20:02:40.370Z,100908.13
2022-07-29T20:05:08.865Z,100904.50
2022-07-29T20:07:36.876Z,100905.97
2022-07-29T20:10:05.405Z,100905.41
2022-07-29T20:12:32.973Z,100906.00
2022-07-29T20:15:00.153Z,100900.44
2022-07-29T20:17:28.722Z,100892.13
2022-07-29T20:19:57.138Z,100895.28
2022-07-29T20:22:24.232Z,100899.28
2022-07-29T20:24:51.481Z,100903.72
2022-07-29T20:27:19.088Z,100901.03
2022-07-29T20:29:46.239Z,100899.22
2022-07-29T20:32:13.566Z,100896.03
2022-07-29T20:34:41.585Z,100898.22
2022-07-29T20:37:14.803Z,100891.97
2022-07-29T20:39:47.927Z,100904.41
2022-07-29T20:42:16.392Z,100905.44
2022-07-29T20:44:43.790Z,100907.59
2022-07-29T20:47:11.026Z,100907.69
2022-07-29T20:49:38.178Z,100912.72
2022-07-29T20:52:05.510Z,100915.31
2022-07-29T20:54:32.743Z,100912.13
2022-07-29T20:57:00.118Z,100923.44
2022-07-29T20:59:27.492Z,100920.28
2022-07-29T21:01:55.743Z,100922.06
2022-07-29T21:04:22.884Z,100927.19
2022-07-29T21:06:58.667Z,100928.28
2022-07-29T21:09:26.214Z,100919.81
2022-07-29T21:11:53.349Z,100918.47
2022-07-29T21:14:40.897Z,100923.56
2022-07-29T21:17:08.246Z,100922.78
2022-07-29T21:19:35.476Z,100919.31
2022-07-29T21:22:03.260Z,100913.44
2022-07-29T21:24:30.400Z,100911.81
2022-07-29T21:27:21.696Z,100907.72
2022-07-29T21:29:49.543Z,100911.50
2022-07-29T21:32:29.656Z,100910.66
2022-07-29T21:34:58.340Z,100911.03
2022-07-29T21:37:25.649Z,100908.53
2022-07-29T21:39:52.773Z,100911.25
2022-07-29T21:42:19.909Z,100912.00
2022-07-29T21:44:47.030Z,100911.47
2022-07-29T21:47:14.177Z,100914.19
2022-07-29T21:49:41.332Z,100907.13
2022-07-29T21:52:08.962Z,100913.13
2022-07-29T21:54:36.276Z,100913.09
2022-07-29T21:57:04.044Z,100914.00
2022-07-29T21:59:31.995Z,100908.34
2022-07-29T22:02:01.164Z,100912.28
2022-07-29T22:04:29.591Z,100920.44
2022-07-29T22:06:58.512Z,100916.28
2022-07-29T22:09:26.736Z,100912.34
2022-07-29T22:11:55.071Z,100901.63
2022-07-29T22:14:22.636Z,100913.16
2022-07-29T22:16:49.923Z,100911.75
2022-07-29T22:19:17.225Z,100908.06
2022-07-29T22:21:44.819Z,100912.72
2022-07-29T22:24:12.015Z,100912.97
2022-07-29T22:26:39.100Z,100914.19
2022-07-29T22:29:06.722Z,100903.47
2022-07-29T22:31:34.249Z,100915.25
2022-07-29T22:34:01.358Z,100911.34
2022-07-29T22:36:28.498Z,100907.84
2022-07-29T22:38:55.621Z,100910.19
2022-07-29T22:41:22.813Z,100917.75
2022-07-29T22:43:50.159Z,100912.91
2022-07-29T22:46:17.420Z,100908.44
2022-07-29T22:48:44.729Z,100913.09
2022-07-29T22:51:11.859Z,100903.59
2022-07-29T22:53:38.950Z,100910.59
2022-07-29T22:56:06.262Z,100916.25
2022-07-29T22:58:33.410Z,100918.00
2022-07-29T23:01:00.631Z,100903.56
2022-07-29T23:03:27.839Z,100916.75
2022-07-29T23:05:55.110Z,100914.28
2022-07-29T23:08:22.307Z,100911.88
2022-07-29T23:10:49.488Z,100915.88
2022-07-29T23:13:16.643Z,100909.69
2022-07-29T23:15:43.727Z,100906.47
2022-07-29T23:18:10.889Z,100908.69
2022-07-29T23:20:38.124Z,100912.28
2022-07-29T23:23:05.647Z,100917.69
2022-07-29T23:25:32.891Z,100916.44
2022-07-29T23:28:00.114Z,100912.28
2022-07-29T23:30:27.558Z,100916.78
2022-07-29T23:32:55.704Z,100915.78
2022-07-29T23:35:23.214Z,100923.53
2022-07-29T23:37:50.317Z,100922.97
2022-07-29T23:40:17.427Z,100921.66
2022-07-29T23:42:44.825Z,100916.91
2022-07-29T23:45:13.397Z,100913.09
2022-07-29T23:47:41.147Z,100903.41
2022-07-29T23:50:09.619Z,100916.25
2022-07-29T23:52:36.681Z,100911.38
2022-07-29T23:55:36.430Z,100905.78
2022-07-29T23:57:51.736Z,100904.97
